Griffith, Australia
Current Conditions -  °F | °C
As of 10:00 PM on Sunday 23 Nov 2014 (Local Time) from YGTH Reporting Station
Drizzle Drizzle  
Wind Chill: 86°   Ceiling: Unl
Heat Index: 86°   Visibility: 6mi
Dew Point: 46°   Wind: 7mph
Humidity: 25%   Direction: 190°S
Pressure: 29.88"   Gusts: NA
Location:  34.32°S, 146.07°E
Report Text: YGTH 231100Z AUTO 19006KT 9999 -DZ NCD 30/08 Q1012
Loading
Personal Weather Stations






























Interactive Weather Map New forecast layout! Learn more

10-Day Weather Forecast

Advertisements
Track Severe Weather on mobile